createdAt,value
2023-03-02T00:01:59.150Z,26.50
2023-03-02T00:04:39.587Z,29.85
2023-03-02T00:07:09.547Z,26.45
2023-03-02T00:09:37.454Z,24.85
2023-03-02T00:12:04.956Z,25.23
2023-03-02T00:14:31.909Z,23.60
2023-03-02T00:16:58.902Z,29.88
2023-03-02T00:19:25.624Z,27.67
2023-03-02T00:21:52.300Z,32.50
2023-03-02T00:24:19.063Z,36.85
2023-03-02T00:26:45.851Z,28.17
2023-03-02T00:29:12.603Z,25.88
2023-03-02T00:31:39.459Z,31.20
2023-03-02T00:34:06.312Z,32.70
2023-03-02T00:36:33.222Z,28.50
2023-03-02T00:39:00.017Z,28.27
2023-03-02T00:41:27.401Z,29.45
2023-03-02T00:43:54.090Z,26.02
2023-03-02T00:46:23.571Z,27.35
2023-03-02T00:48:51.508Z,26.50
2023-03-02T00:51:18.737Z,27.17
2023-03-02T00:53:45.478Z,26.80
2023-03-02T00:56:12.722Z,31.20
2023-03-02T00:58:39.524Z,27.35
2023-03-02T01:01:09.039Z,32.08
2023-03-02T01:03:36.576Z,31.75
2023-03-02T01:06:04.063Z,26.05
2023-03-02T01:08:31.104Z,26.60
2023-03-02T01:10:57.788Z,27.67
2023-03-02T01:13:24.521Z,28.38
2023-03-02T01:16:03.000Z,29.92
2023-03-02T01:18:29.869Z,29.58
2023-03-02T01:21:11.894Z,27.33
2023-03-02T01:23:38.708Z,33.20
2023-03-02T01:26:05.977Z,29.33
2023-03-02T01:28:32.722Z,28.92
2023-03-02T01:30:59.455Z,27.55
2023-03-02T01:33:26.224Z,29.38
2023-03-02T01:35:52.997Z,29.02
2023-03-02T01:38:19.820Z,28.52
2023-03-02T01:44:39.512Z,33.85
2023-03-02T01:47:14.522Z,33.83
2023-03-02T01:50:21.977Z,33.88
2023-03-02T01:52:50.771Z,31.85
2023-03-02T01:55:22.033Z,30.67
2023-03-02T01:57:51.940Z,29.67
2023-03-02T02:00:29.776Z,31.35
2023-03-02T02:03:00.382Z,29.65
2023-03-02T02:05:27.127Z,34.72
2023-03-02T02:07:53.969Z,33.15
2023-03-02T02:10:20.913Z,35.80
2023-03-02T02:12:47.605Z,36.25
2023-03-02T02:15:14.300Z,32.80
2023-03-02T02:17:42.070Z,33.70
2023-03-02T02:20:27.032Z,32.58
2023-03-02T02:23:02.680Z,32.00
2023-03-02T02:28:00.087Z,36.60
2023-03-02T02:30:27.817Z,36.78
2023-03-02T02:32:55.345Z,33.20
2023-03-02T02:35:26.223Z,33.75
2023-03-02T02:37:57.218Z,35.78
2023-03-02T02:40:42.117Z,33.25
2023-03-02T02:43:13.833Z,34.28
2023-03-02T02:45:40.759Z,40.22
2023-03-02T02:48:20.143Z,35.67
2023-03-02T02:50:47.638Z,37.38
2023-03-02T02:53:24.984Z,32.50
2023-03-02T02:55:54.946Z,33.15
2023-03-02T02:58:27.514Z,37.90
2023-03-02T03:00:54.630Z,39.17
2023-03-02T03:03:28.658Z,34.00
2023-03-02T03:06:00.628Z,41.13
2023-03-02T03:09:00.749Z,39.17
2023-03-02T03:11:33.766Z,35.53
2023-03-02T03:14:06.476Z,37.88
2023-03-02T03:16:34.844Z,37.28
2023-03-02T03:19:10.436Z,37.35
2023-03-02T03:21:37.400Z,39.83
2023-03-02T03:24:04.458Z,34.78
2023-03-02T03:26:31.616Z,37.22
2023-03-02T03:28:58.476Z,38.20
2023-03-02T03:31:27.413Z,36.17
2023-03-02T03:33:55.844Z,34.10
2023-03-02T03:36:23.032Z,35.47
2023-03-02T03:38:49.735Z,38.42
2023-03-02T03:41:16.421Z,37.72
2023-03-02T03:43:43.134Z,40.83
2023-03-02T03:46:10.028Z,43.20
2023-03-02T03:48:36.829Z,38.50
2023-03-02T03:51:03.726Z,43.95
2023-03-02T03:53:30.638Z,40.38
2023-03-02T03:55:57.357Z,40.85
2023-03-02T03:58:25.121Z,40.72
2023-03-02T04:00:52.902Z,41.97
2023-03-02T04:03:22.097Z,43.13
2023-03-02T04:05:49.195Z,40.92
2023-03-02T04:08:15.993Z,45.22
2023-03-02T04:10:42.841Z,44.38
2023-03-02T04:13:09.958Z,47.20
2023-03-02T04:15:37.222Z,42.17
2023-03-02T04:18:04.573Z,42.58
2023-03-02T04:20:31.720Z,45.35
2023-03-02T04:22:58.696Z,47.28
2023-03-02T04:25:27.653Z,46.72
2023-03-02T04:27:54.844Z,45.70
2023-03-02T04:30:25.013Z,49.22
2023-03-02T04:32:51.730Z,57.88
2023-03-02T04:35:18.542Z,49.40
2023-03-02T04:37:45.526Z,49.90
2023-03-02T04:40:13.162Z,55.08
2023-03-02T04:42:39.968Z,52.10
2023-03-02T04:45:07.465Z,55.22
2023-03-02T04:47:34.141Z,57.83
2023-03-02T04:50:00.838Z,62.75
2023-03-02T04:52:27.521Z,65.03
2023-03-02T04:54:54.263Z,64.25
2023-03-02T04:57:21.008Z,65.18
2023-03-02T04:59:47.751Z,71.68
2023-03-02T05:02:14.521Z,77.13
2023-03-02T05:04:41.354Z,69.28
2023-03-02T05:07:08.518Z,68.47
2023-03-02T05:09:35.393Z,57.90
2023-03-02T05:12:02.385Z,60.20
2023-03-02T05:14:29.768Z,59.58
2023-03-02T05:16:57.301Z,62.33
2023-03-02T05:19:24.084Z,57.67
2023-03-02T05:21:50.807Z,62.35
2023-03-02T05:24:17.683Z,56.35
2023-03-02T05:26:44.401Z,57.65
2023-03-02T05:29:11.185Z,59.63
2023-03-02T05:31:41.205Z,66.88
2023-03-02T05:34:10.830Z,64.05
2023-03-02T05:36:38.013Z,61.95
2023-03-02T05:39:05.919Z,62.78
2023-03-02T05:41:32.965Z,68.47
2023-03-02T05:43:59.889Z,69.80
2023-03-02T05:46:27.066Z,72.25
2023-03-02T05:48:54.428Z,70.68
2023-03-02T05:51:21.403Z,66.68
2023-03-02T05:53:48.148Z,70.85
2023-03-02T05:56:14.831Z,75.85
2023-03-02T05:58:41.559Z,71.88
2023-03-02T06:01:10.248Z,69.20
2023-03-02T06:03:37.180Z,74.53
2023-03-02T06:06:04.131Z,78.05
2023-03-02T06:08:30.994Z,83.78
2023-03-02T06:10:58.107Z,71.50
2023-03-02T06:13:24.836Z,75.32
2023-03-02T06:15:51.658Z,79.28
2023-03-02T06:18:18.428Z,84.05
2023-03-02T06:20:45.112Z,85.85
2023-03-02T06:23:11.903Z,84.70
2023-03-02T06:25:39.097Z,94.97
2023-03-02T06:28:05.885Z,101.20
2023-03-02T06:30:32.710Z,117.82
2023-03-02T06:32:59.383Z,122.25
2023-03-02T06:35:26.103Z,120.85
2023-03-02T06:37:52.873Z,113.45
2023-03-02T06:40:19.744Z,109.22
2023-03-02T06:42:46.456Z,119.00
2023-03-02T06:45:13.342Z,131.38
2023-03-02T06:47:40.094Z,196.35
2023-03-02T06:50:07.663Z,172.60
2023-03-02T06:52:35.125Z,165.90
2023-03-02T06:55:02.180Z,149.13
2023-03-02T06:57:28.883Z,149.07
2023-03-02T06:59:55.616Z,133.80
2023-03-02T07:02:22.312Z,250.98
2023-03-02T07:04:49.009Z,168.48
2023-03-02T07:07:15.768Z,269.38
2023-03-02T07:09:42.476Z,222.32
2023-03-02T07:12:09.208Z,246.48
2023-03-02T07:14:36.251Z,179.88
2023-03-02T07:17:15.504Z,200.88
2023-03-02T07:19:42.346Z,110.78
2023-03-02T07:22:09.304Z,94.95
2023-03-02T07:24:36.234Z,89.18
2023-03-02T07:27:02.969Z,133.63
2023-03-02T07:29:29.766Z,131.05
2023-03-02T07:31:56.607Z,132.05
2023-03-02T07:34:34.945Z,183.52
2023-03-02T07:37:01.647Z,165.80
2023-03-02T07:39:28.457Z,77.53
2023-03-02T07:42:01.389Z,72.43
2023-03-02T07:44:35.259Z,80.93
2023-03-02T07:47:02.048Z,109.85
2023-03-02T07:49:28.980Z,107.38
2023-03-02T07:51:55.772Z,89.22
2023-03-02T07:54:22.527Z,84.78
2023-03-02T07:56:49.314Z,77.68
2023-03-02T07:59:16.049Z,84.63
2023-03-02T08:01:42.879Z,75.95
2023-03-02T08:04:09.833Z,71.85
2023-03-02T08:06:36.778Z,68.50
2023-03-02T08:09:04.725Z,66.93
2023-03-02T08:11:31.912Z,70.40
2023-03-02T08:14:03.246Z,76.80
2023-03-02T08:16:30.722Z,125.28
2023-03-02T08:18:59.800Z,64.43
2023-03-02T08:21:28.092Z,105.03
2023-03-02T08:23:55.227Z,92.28
2023-03-02T08:26:22.136Z,90.25
2023-03-02T08:28:48.913Z,80.45
2023-03-02T08:31:16.022Z,91.22
2023-03-02T08:33:43.824Z,71.80
2023-03-02T08:36:15.631Z,75.10
2023-03-02T08:38:43.237Z,79.65
2023-03-02T08:41:13.828Z,82.75
2023-03-02T08:43:41.120Z,75.85
2023-03-02T08:46:08.462Z,72.75
2023-03-02T08:48:35.249Z,83.45
2023-03-02T08:51:12.279Z,89.47
2023-03-02T08:53:44.840Z,92.10
2023-03-02T08:56:36.670Z,76.43
2023-03-02T08:59:06.136Z,77.22
2023-03-02T09:01:35.441Z,71.90
2023-03-02T09:04:04.458Z,71.75
2023-03-02T09:06:34.775Z,71.57
2023-03-02T09:09:01.910Z,69.68
2023-03-02T09:11:28.901Z,68.25
2023-03-02T09:13:55.679Z,60.30
2023-03-02T09:16:23.488Z,59.97
2023-03-02T09:18:50.397Z,57.15
2023-03-02T09:21:17.391Z,53.80
2023-03-02T09:23:44.344Z,68.38
2023-03-02T09:26:11.595Z,59.63
2023-03-02T09:28:38.943Z,53.50
2023-03-02T09:31:07.570Z,56.90
2023-03-02T09:33:35.292Z,52.55
2023-03-02T09:36:09.092Z,52.30
2023-03-02T09:38:35.798Z,57.90
2023-03-02T09:41:28.848Z,55.63
2023-03-02T09:44:21.201Z,58.15
2023-03-02T09:46:57.468Z,53.88
2023-03-02T09:49:51.131Z,48.88
2023-03-02T09:52:40.787Z,51.95
2023-03-02T09:55:24.850Z,56.00
2023-03-02T09:57:52.403Z,54.10
2023-03-02T10:00:31.425Z,50.88
2023-03-02T10:03:16.486Z,47.22
2023-03-02T10:05:47.182Z,51.58
2023-03-02T10:08:35.302Z,49.53
2023-03-02T10:11:31.220Z,48.85
2023-03-02T10:14:12.516Z,52.95
2023-03-02T10:16:49.171Z,75.47
2023-03-02T10:19:47.570Z,54.60
2023-03-02T10:22:41.833Z,40.67
2023-03-02T10:25:26.932Z,47.08
2023-03-02T10:28:20.897Z,44.22
2023-03-02T10:31:08.435Z,33.65
2023-03-02T10:33:38.987Z,34.78
2023-03-02T10:36:20.747Z,31.55
2023-03-02T10:38:47.832Z,37.47
2023-03-02T10:41:39.908Z,35.85
2023-03-02T10:44:21.275Z,35.97
2023-03-02T10:46:48.186Z,37.70
2023-03-02T10:49:30.208Z,36.08
2023-03-02T10:52:24.572Z,34.92
2023-03-02T10:55:03.216Z,36.10
2023-03-02T10:57:40.272Z,33.28
2023-03-02T11:00:26.401Z,33.60
2023-03-02T11:05:36.570Z,33.95
2023-03-02T11:08:10.043Z,30.95
2023-03-02T11:11:10.778Z,32.72
2023-03-02T11:13:39.254Z,39.03
2023-03-02T11:16:17.710Z,33.88
2023-03-02T11:19:01.781Z,32.35
2023-03-02T11:21:44.035Z,31.67
2023-03-02T11:24:44.938Z,28.08
2023-03-02T11:27:25.310Z,25.98
2023-03-02T11:30:00.416Z,23.38
2023-03-02T11:32:58.708Z,25.75
2023-03-02T11:35:38.769Z,30.40
2023-03-02T11:38:21.304Z,27.80
2023-03-02T11:40:56.100Z,28.02
2023-03-02T11:43:22.886Z,26.13
2023-03-02T11:46:01.834Z,29.50
2023-03-02T11:48:43.403Z,28.58
2023-03-02T11:51:18.503Z,26.85
2023-03-02T11:54:11.444Z,33.17
2023-03-02T11:56:39.969Z,30.25
2023-03-02T11:59:15.775Z,27.02
2023-03-02T12:01:48.261Z,27.85
2023-03-02T12:04:27.236Z,27.10
2023-03-02T12:06:54.458Z,27.65
2023-03-02T12:09:23.945Z,29.08
2023-03-02T12:12:26.335Z,29.38
2023-03-02T12:14:53.070Z,31.67
2023-03-02T12:17:30.902Z,28.55
2023-03-02T12:20:06.835Z,28.70
2023-03-02T12:22:34.915Z,28.05
2023-03-02T12:25:27.735Z,30.75
2023-03-02T12:27:55.172Z,29.88
2023-03-02T12:30:27.914Z,29.30
2023-03-02T12:33:24.755Z,27.25
2023-03-02T12:36:05.204Z,29.27
2023-03-02T12:38:36.310Z,35.67
2023-03-02T12:41:29.340Z,32.33
2023-03-02T12:44:17.087Z,29.38
2023-03-02T12:46:47.028Z,25.20
2023-03-02T12:49:47.906Z,31.15
2023-03-02T12:52:31.383Z,28.52
2023-03-02T12:55:17.682Z,27.77
2023-03-02T12:57:52.910Z,26.83
2023-03-02T13:00:23.411Z,26.95
2023-03-02T13:02:53.053Z,25.48
2023-03-02T13:05:31.983Z,30.05
2023-03-02T13:08:07.519Z,31.40
2023-03-02T13:10:49.385Z,26.15
2023-03-02T13:13:45.020Z,24.30
2023-03-02T13:16:26.857Z,36.37
2023-03-02T13:18:57.895Z,24.45
2023-03-02T13:21:37.551Z,26.27
2023-03-02T13:24:24.833Z,23.10
2023-03-02T13:27:15.418Z,23.60
2023-03-02T13:29:42.366Z,25.33
2023-03-02T13:32:20.112Z,37.22
2023-03-02T13:34:54.034Z,22.98
2023-03-02T13:37:36.383Z,24.50
2023-03-02T13:40:07.002Z,23.25
2023-03-02T13:42:41.198Z,21.20
2023-03-02T13:45:25.135Z,22.05
2023-03-02T13:47:52.994Z,19.58
2023-03-02T13:50:26.397Z,18.52
2023-03-02T13:52:56.340Z,20.27
2023-03-02T13:55:24.180Z,19.70
2023-03-02T13:57:54.423Z,18.77
2023-03-02T14:00:23.076Z,17.80
2023-03-02T14:02:49.869Z,17.33
2023-03-02T14:05:19.495Z,17.38
2023-03-02T14:07:46.715Z,23.98
2023-03-02T14:10:18.786Z,18.33
2023-03-02T14:13:06.332Z,21.20
2023-03-02T14:15:41.639Z,21.85
2023-03-02T14:18:27.033Z,19.15
2023-03-02T14:20:54.221Z,18.50
2023-03-02T14:23:21.146Z,19.52
2023-03-02T14:25:48.768Z,22.55
2023-03-02T14:28:25.024Z,21.08
2023-03-02T14:30:55.086Z,25.77
2023-03-02T14:33:23.071Z,22.83
2023-03-02T14:35:52.810Z,20.30
2023-03-02T14:38:23.016Z,24.50
2023-03-02T14:40:49.884Z,22.65
2023-03-02T14:43:17.135Z,24.65
2023-03-02T14:45:44.754Z,26.73
2023-03-02T14:48:11.594Z,30.52
2023-03-02T14:50:46.223Z,38.30
2023-03-02T14:53:24.641Z,38.55
2023-03-02T14:55:51.474Z,50.38
2023-03-02T14:58:20.677Z,54.40
2023-03-02T15:00:47.574Z,65.78
2023-03-02T15:03:17.113Z,67.97
2023-03-02T15:05:51.805Z,80.82
2023-03-02T15:08:25.989Z,76.70
2023-03-02T15:10:53.486Z,81.47
2023-03-02T15:13:20.237Z,87.47
2023-03-02T15:15:47.001Z,99.63
2023-03-02T15:18:14.065Z,112.75
2023-03-02T15:20:41.164Z,121.70
2023-03-02T15:23:07.944Z,135.80
2023-03-02T15:25:34.786Z,143.88
2023-03-02T15:28:01.442Z,147.35
2023-03-02T15:30:31.031Z,149.85
2023-03-02T15:32:58.340Z,157.30
2023-03-02T15:35:26.732Z,166.85
2023-03-02T15:37:53.708Z,164.50
2023-03-02T15:40:20.524Z,145.40
2023-03-02T15:42:47.349Z,137.50
2023-03-02T15:45:14.100Z,137.70
2023-03-02T15:47:40.791Z,149.20
2023-03-02T15:50:08.161Z,153.70
2023-03-02T15:52:34.958Z,152.75
2023-03-02T15:55:01.694Z,162.73
2023-03-02T15:57:28.383Z,150.23
2023-03-02T15:59:55.211Z,142.52
2023-03-02T16:02:21.910Z,129.80
2023-03-02T16:04:48.744Z,124.43
2023-03-02T16:07:15.547Z,121.97
2023-03-02T16:09:42.348Z,143.82
2023-03-02T16:12:09.145Z,133.73
2023-03-02T16:14:35.974Z,121.82
2023-03-02T16:17:02.763Z,136.27
2023-03-02T16:19:29.608Z,148.20
2023-03-02T16:21:56.441Z,154.82
2023-03-02T16:24:26.003Z,144.98
2023-03-02T16:26:53.593Z,125.53
2023-03-02T16:29:20.937Z,122.15
2023-03-02T16:31:48.223Z,116.10
2023-03-02T16:34:15.269Z,110.97
2023-03-02T16:36:42.477Z,113.40
2023-03-02T16:39:11.358Z,113.68
2023-03-02T16:41:40.046Z,115.65
2023-03-02T16:44:07.285Z,110.07
2023-03-02T16:46:36.445Z,118.82
2023-03-02T16:49:06.069Z,120.10
2023-03-02T16:51:33.692Z,104.65
2023-03-02T16:54:03.213Z,99.43
2023-03-02T16:56:30.000Z,86.15
2023-03-02T16:58:58.823Z,80.97
2023-03-02T17:01:26.781Z,83.97
2023-03-02T17:03:53.763Z,77.82
2023-03-02T17:06:23.687Z,76.80
2023-03-02T17:08:50.877Z,77.65
2023-03-02T17:11:18.497Z,79.80
2023-03-02T17:13:45.274Z,78.32
2023-03-02T17:16:12.643Z,76.35
2023-03-02T17:18:39.928Z,78.60
2023-03-02T17:21:06.741Z,72.32
2023-03-02T17:23:33.712Z,66.35
2023-03-02T17:26:00.555Z,61.25
2023-03-02T17:28:27.521Z,67.10
2023-03-02T17:30:54.487Z,65.80
2023-03-02T17:33:21.329Z,60.20
2023-03-02T17:35:48.148Z,66.15
2023-03-02T17:38:15.629Z,69.90
2023-03-02T17:40:43.141Z,53.42
2023-03-02T17:43:10.563Z,48.83
2023-03-02T17:45:37.335Z,53.72
2023-03-02T17:48:04.633Z,53.25
2023-03-02T17:50:31.536Z,57.08
2023-03-02T17:52:59.263Z,61.95
2023-03-02T17:55:26.039Z,63.63
2023-03-02T17:57:52.908Z,75.25
2023-03-02T18:00:21.620Z,52.85
2023-03-02T18:02:49.542Z,42.00
2023-03-02T18:05:16.522Z,48.28
2023-03-02T18:07:43.318Z,50.75
2023-03-02T18:10:10.979Z,46.80
2023-03-02T18:12:37.826Z,54.08
2023-03-02T18:15:05.377Z,60.20
2023-03-02T18:17:32.179Z,61.15
2023-03-02T18:19:59.272Z,63.00
2023-03-02T18:22:26.055Z,60.95
2023-03-02T18:24:52.766Z,59.83
2023-03-02T18:27:20.012Z,63.65
2023-03-02T18:29:48.087Z,64.32
2023-03-02T18:32:14.927Z,55.58
2023-03-02T18:34:41.984Z,52.35
2023-03-02T18:37:09.000Z,49.80
2023-03-02T18:39:36.418Z,51.10
2023-03-02T18:42:03.673Z,52.10
2023-03-02T18:44:30.604Z,46.97
2023-03-02T18:46:59.580Z,50.80
2023-03-02T18:49:27.388Z,45.58
2023-03-02T18:51:54.141Z,47.22
2023-03-02T18:54:21.149Z,34.33
2023-03-02T18:56:48.447Z,35.33
2023-03-02T18:59:18.079Z,36.47
2023-03-02T19:01:47.680Z,36.83
2023-03-02T19:04:15.117Z,35.95
2023-03-02T19:06:43.112Z,42.50
2023-03-02T19:09:11.940Z,34.42
2023-03-02T19:11:38.872Z,35.45
2023-03-02T19:14:05.648Z,42.25
2023-03-02T19:16:33.224Z,38.92
2023-03-02T19:19:00.141Z,36.78
2023-03-02T19:21:26.988Z,38.42
2023-03-02T19:23:54.003Z,38.38
2023-03-02T19:26:21.271Z,37.40
2023-03-02T19:28:48.460Z,36.42
2023-03-02T19:31:18.976Z,34.58
2023-03-02T19:33:47.695Z,33.20
2023-03-02T19:36:15.900Z,31.77
2023-03-02T19:38:42.805Z,31.80
2023-03-02T19:41:14.031Z,30.42
2023-03-02T19:43:41.031Z,36.97
2023-03-02T19:46:09.086Z,36.00
2023-03-02T19:48:35.979Z,37.38
2023-03-02T19:51:03.687Z,36.08
2023-03-02T19:53:31.254Z,38.58
2023-03-02T19:56:03.074Z,31.45
2023-03-02T19:58:33.141Z,29.35
2023-03-02T20:01:00.424Z,29.40
2023-03-02T20:03:28.060Z,34.97
2023-03-02T20:05:55.307Z,28.48
2023-03-02T20:08:22.197Z,39.05
2023-03-02T20:10:49.652Z,43.38
2023-03-02T20:13:20.768Z,40.25
2023-03-02T20:15:49.548Z,38.15
2023-03-02T20:18:19.301Z,36.13
2023-03-02T20:20:46.943Z,37.45
2023-03-02T20:23:14.618Z,32.17
2023-03-02T20:25:41.927Z,36.78
2023-03-02T20:28:09.279Z,35.10
2023-03-02T20:30:50.394Z,34.67
2023-03-02T20:33:18.596Z,38.78
2023-03-02T20:35:46.080Z,39.28
2023-03-02T20:38:28.135Z,39.17
2023-03-02T20:40:56.654Z,44.58
2023-03-02T20:43:23.714Z,40.30
2023-03-02T20:45:50.963Z,41.00
2023-03-02T20:48:18.132Z,40.17
2023-03-02T20:50:45.099Z,38.95
2023-03-02T20:53:11.972Z,38.70
2023-03-02T20:55:38.974Z,110.88
2023-03-02T20:58:06.314Z,42.45
2023-03-02T21:00:36.511Z,48.67
2023-03-02T21:03:04.413Z,42.25
2023-03-02T21:05:33.769Z,42.70
2023-03-02T21:08:01.278Z,65.13
2023-03-02T21:10:33.210Z,48.55
2023-03-02T21:13:00.268Z,59.78
2023-03-02T21:15:30.850Z,41.03
2023-03-02T21:17:57.870Z,47.25
2023-03-02T21:20:28.702Z,44.78
2023-03-02T21:22:56.685Z,50.50
2023-03-02T21:25:23.919Z,36.30
2023-03-02T21:27:51.078Z,34.22
2023-03-02T21:30:28.196Z,44.80
2023-03-02T21:32:56.732Z,44.55
2023-03-02T21:35:24.235Z,41.42
2023-03-02T21:37:54.964Z,42.53
2023-03-02T21:40:30.774Z,35.53
2023-03-02T21:42:58.199Z,37.40
2023-03-02T21:45:24.983Z,36.30
2023-03-02T21:47:52.790Z,39.60
2023-03-02T21:50:23.368Z,38.00
2023-03-02T21:52:50.358Z,34.17
2023-03-02T21:55:17.415Z,37.58
2023-03-02T21:57:44.251Z,31.55
2023-03-02T22:00:24.048Z,35.92
2023-03-02T22:02:51.753Z,35.17
2023-03-02T22:05:19.686Z,33.97
2023-03-02T22:07:47.084Z,35.08
2023-03-02T22:10:26.620Z,37.50
2023-03-02T22:13:15.074Z,35.58
2023-03-02T22:15:41.910Z,36.67
2023-03-02T22:18:17.167Z,35.58
2023-03-02T22:20:47.363Z,38.08
2023-03-02T22:23:17.082Z,32.88
2023-03-02T22:25:44.509Z,38.78
2023-03-02T22:28:18.079Z,39.90
2023-03-02T22:30:45.395Z,38.72
2023-03-02T22:33:20.779Z,37.92
2023-03-02T22:35:48.791Z,40.50
2023-03-02T22:38:27.795Z,35.65
2023-03-02T22:40:55.707Z,35.63
2023-03-02T22:43:28.923Z,37.45
2023-03-02T22:46:05.627Z,38.50
2023-03-02T22:48:35.141Z,36.00
2023-03-02T22:51:24.689Z,35.30
2023-03-02T22:53:57.269Z,39.05
2023-03-02T22:56:26.972Z,37.78
2023-03-02T22:58:54.529Z,40.33
2023-03-02T23:01:27.365Z,38.05
2023-03-02T23:03:58.812Z,37.80
2023-03-02T23:06:28.724Z,40.55
2023-03-02T23:08:58.652Z,44.72
2023-03-02T23:11:25.948Z,41.30
2023-03-02T23:13:53.406Z,41.20
2023-03-02T23:16:33.648Z,39.65
2023-03-02T23:19:02.173Z,40.47
2023-03-02T23:21:45.891Z,39.70
2023-03-02T23:24:13.021Z,37.03
2023-03-02T23:26:40.228Z,40.92
2023-03-02T23:29:07.382Z,39.85
2023-03-02T23:31:34.243Z,41.45
2023-03-02T23:34:01.072Z,43.70
2023-03-02T23:36:27.902Z,41.63
2023-03-02T23:38:54.675Z,40.83
2023-03-02T23:41:21.536Z,40.85
2023-03-02T23:43:48.323Z,41.25
2023-03-02T23:46:15.424Z,42.47
2023-03-02T23:48:43.042Z,42.65
2023-03-02T23:51:10.427Z,43.15
2023-03-02T23:53:37.332Z,42.15
2023-03-02T23:56:04.257Z,40.70
2023-03-02T23:58:30.968Z,41.80
